Time;durP1;ratioP1;P1;durP2;ratioP2;P2;SDS_P1;SDS_P2;PMS_P1;PMS_P2;Temp;Humidity;BMP_temperature;BMP_pressure;BME280_temperature;BME280_humidity;BME280_pressure;Samples;Min_cycle;Max_cycle;Signal;HPM_P1;HPM_P2
2022/07/11 00:02:23;;;;;;;19.35;5.82;;;;;;;15.17;86.99;102244.16;5068725;28;20039;-78
2022/07/11 00:04:48;;;;;;;15.63;5.72;;;;;;;15.12;87.24;102236.34;5069013;28;20030;-77
2022/07/11 00:07:15;;;;;;;16.13;5.93;;;;;;;15.12;86.95;102240.91;5067663;28;20126;-77
2022/07/11 00:09:40;;;;;;;18.17;6.20;;;;;;;15.08;86.87;102244.78;5068202;28;20079;-77
2022/07/11 00:12:08;;;;;;;16.23;5.80;;;;;;;15.08;87.39;102239.38;5067757;28;20082;-77
2022/07/11 00:14:33;;;;;;;19.85;6.13;;;;;;;15.05;87.43;102234.19;5065420;28;20448;-77
2022/07/11 00:16:59;;;;;;;14.52;5.10;;;;;;;15.02;87.94;102236.13;5067976;28;20108;-77
2022/07/11 00:19:24;;;;;;;17.40;6.30;;;;;;;15.02;87.57;102238.84;5068280;28;20040;-77
2022/07/11 00:21:51;;;;;;;16.52;5.72;;;;;;;15.01;87.57;102234.41;5076313;28;20024;-77
2022/07/11 00:24:19;;;;;;;18.92;6.88;;;;;;;14.98;87.82;102229.19;5069116;28;20028;-77
2022/07/11 00:26:45;;;;;;;18.70;6.90;;;;;;;14.95;88.13;102226.72;5069378;28;20024;-78
2022/07/11 00:29:11;;;;;;;16.50;6.00;;;;;;;14.92;87.84;102223.34;5070462;28;20017;-78
2022/07/11 00:31:36;;;;;;;18.35;6.85;;;;;;;14.92;87.92;102223.34;5068064;28;20368;-78
2022/07/11 00:34:02;;;;;;;18.13;6.97;;;;;;;14.90;88.02;102219.88;5068887;28;20028;-78
2022/07/11 00:36:27;;;;;;;18.48;6.28;;;;;;;14.88;88.32;102214.56;5065697;28;20660;-78
2022/07/11 00:38:52;;;;;;;17.83;6.40;;;;;;;14.88;88.01;102224.53;5067979;28;20032;-78
2022/07/11 00:41:18;;;;;;;17.98;6.85;;;;;;;14.84;88.43;102218.47;5070713;28;20037;-78
2022/07/11 00:43:54;;;;;;;16.88;5.93;;;;;;;14.82;88.29;102218.56;5071593;28;20166;-78
2022/07/11 00:46:20;;;;;;;16.88;6.28;;;;;;;14.81;88.60;102221.38;5065751;28;20024;-78
2022/07/11 00:48:45;;;;;;;19.67;6.82;;;;;;;14.79;88.74;102224.19;5073423;28;20384;-78
2022/07/11 00:51:11;;;;;;;17.02;6.32;;;;;;;14.76;88.61;102216.28;5079161;28;20028;-78
2022/07/11 00:53:37;;;;;;;17.25;6.43;;;;;;;14.72;88.43;102219.31;5073842;28;20044;-78
2022/07/11 00:56:03;;;;;;;18.40;7.15;;;;;;;14.67;88.49;102215.09;5072946;28;20020;-78
2022/07/11 00:58:28;;;;;;;19.65;7.25;;;;;;;14.65;88.67;102217.03;5071668;28;20028;-77
2022/07/11 01:00:55;;;;;;;17.77;6.75;;;;;;;14.61;88.91;102215.53;5061909;28;20032;-78
2022/07/11 01:03:20;;;;;;;18.50;7.03;;;;;;;14.62;88.78;102210.97;5072029;28;20033;-77
2022/07/11 01:05:46;;;;;;;19.90;6.93;;;;;;;14.62;88.95;102217.22;5072899;28;20404;-77
2022/07/11 01:08:11;;;;;;;21.25;7.05;;;;;;;14.61;88.84;102209.19;5069116;28;20028;-77
2022/07/11 01:10:37;;;;;;;17.02;6.97;;;;;;;14.58;88.98;102214.81;5072126;28;20020;-77
2022/07/11 01:13:02;;;;;;;17.30;6.85;;;;;;;14.56;88.87;102217.63;5071929;28;20123;-77
2022/07/11 01:15:27;;;;;;;18.50;7.22;;;;;;;14.55;89.06;102212.31;5070392;28;20119;-77
2022/07/11 01:17:53;;;;;;;20.90;8.00;;;;;;;14.53;89.10;102220.53;5069507;28;20028;-77
2022/07/11 01:20:24;;;;;;;20.33;7.07;;;;;;;14.52;89.45;102210.69;5071840;28;20058;-78
2022/07/11 01:22:52;;;;;;;19.60;7.82;;;;;;;14.51;89.35;102214.38;5073725;28;20032;-78
2022/07/11 01:25:31;;;;;;;17.40;6.93;;;;;;;14.46;89.10;102205.69;5073069;28;20111;-78
2022/07/11 01:27:58;;;;;;;22.02;7.20;;;;;;;14.46;89.06;102211.13;5071212;28;20036;-78
2022/07/11 01:30:25;;;;;;;17.13;6.47;;;;;;;14.42;89.78;102198.75;5071769;28;20035;-78
2022/07/11 01:32:52;;;;;;;19.70;6.80;;;;;;;14.43;89.80;102214.03;5071425;28;20060;-78
2022/07/11 01:35:17;;;;;;;19.55;6.88;;;;;;;14.42;89.83;102204.19;5072374;28;20420;-78
2022/07/11 01:37:43;;;;;;;18.33;6.38;;;;;;;14.39;89.75;102204.38;5070466;28;20055;-78
2022/07/11 01:40:09;;;;;;;19.35;7.43;;;;;;;14.38;90.03;102202.66;5070145;28;20040;-78
2022/07/11 01:42:34;;;;;;;16.90;6.03;;;;;;;14.37;89.64;102201.78;5073613;28;20036;-78
2022/07/11 01:44:59;;;;;;;17.65;6.97;;;;;;;14.37;89.30;102203.63;5071658;28;20029;-78
2022/07/11 01:47:25;;;;;;;19.45;7.30;;;;;;;14.30;89.47;102204.03;5070303;28;20054;-78
2022/07/11 01:49:50;;;;;;;20.42;6.90;;;;;;;14.32;89.70;102209.38;5070814;28;20031;-78
2022/07/11 01:52:15;;;;;;;18.90;7.38;;;;;;;14.31;89.74;102211.19;5058689;28;20068;-78
2022/07/11 01:54:40;;;;;;;21.63;8.02;;;;;;;14.31;89.42;102213.88;5073008;28;20462;-78
2022/07/11 01:57:06;;;;;;;20.67;7.53;;;;;;;14.30;89.73;102216.69;5070424;28;20020;-78
2022/07/11 01:59:31;;;;;;;19.45;7.65;;;;;;;14.28;90.27;102215.94;5063328;28;20107;-78
2022/07/11 02:01:58;;;;;;;17.38;6.68;;;;;;;14.28;90.30;102218.66;5058018;28;20029;-78
2022/07/11 02:04:23;;;;;;;18.30;7.28;;;;;;;14.27;90.07;102222.31;5067890;28;20123;-78
2022/07/11 02:06:48;;;;;;;17.92;7.07;;;;;;;14.25;89.56;102227.81;5070860;28;20321;-78
2022/07/11 02:09:13;;;;;;;19.63;7.50;;;;;;;14.25;89.60;102225.13;5071474;28;20109;-78
2022/07/11 02:11:40;;;;;;;19.40;7.80;;;;;;;14.24;89.61;102226.06;5070045;28;20047;-78
2022/07/11 02:14:05;;;;;;;19.33;6.75;;;;;;;14.21;89.76;102220.88;5070650;28;20488;-78
2022/07/11 02:16:30;;;;;;;20.52;7.60;;;;;;;14.18;89.81;102214.81;5070381;28;20012;-78
2022/07/11 02:18:56;;;;;;;17.42;6.40;;;;;;;14.14;89.50;102211.44;5073291;28;20020;-78
2022/07/11 02:21:21;;;;;;;19.33;7.38;;;;;;;14.11;89.53;102212.50;5064604;28;20020;-78
2022/07/11 02:23:46;;;;;;;18.15;7.40;;;;;;;14.10;89.71;102220.72;5071362;28;20032;-78
2022/07/11 02:26:11;;;;;;;19.58;7.30;;;;;;;14.09;89.82;102213.59;5071454;28;20025;-78
2022/07/11 02:28:37;;;;;;;19.92;7.85;;;;;;;14.05;90.23;102220.19;5071600;28;20442;-78
2022/07/11 02:31:02;;;;;;;19.70;7.00;;;;;;;14.05;90.05;102212.06;5068999;28;20025;-78
2022/07/11 02:33:28;;;;;;;18.30;7.07;;;;;;;14.01;90.42;102207.81;5061976;28;20404;-78
2022/07/11 02:35:53;;;;;;;18.83;7.85;;;;;;;14.01;90.36;102218.63;5070931;28;20028;-78
2022/07/11 02:38:19;;;;;;;19.05;7.63;;;;;;;14.02;90.31;102214.97;5071806;28;20032;-79
2022/07/11 02:40:45;;;;;;;18.45;7.07;;;;;;;14.03;90.26;102208.59;5071213;28;20028;-78
2022/07/11 02:43:10;;;;;;;20.23;6.90;;;;;;;14.05;90.61;102220.19;5070540;28;20063;-78
2022/07/11 02:45:36;;;;;;;20.17;7.88;;;;;;;14.05;91.14;102212.06;5065175;28;20032;-78
2022/07/11 02:48:01;;;;;;;19.85;8.25;;;;;;;14.05;91.57;102212.91;5069748;28;20032;-78
2022/07/11 02:50:26;;;;;;;20.15;8.18;;;;;;;14.06;91.64;102209.25;5073865;28;20457;-78
2022/07/11 02:52:52;;;;;;;19.17;7.95;;;;;;;14.11;91.83;102219.75;5081867;28;20116;-78
2022/07/11 02:55:17;;;;;;;20.15;7.80;;;;;;;14.12;92.04;102210.69;5059227;28;20068;-78
2022/07/11 02:57:42;;;;;;;19.38;7.57;;;;;;;14.14;92.68;102217.75;5070048;28;20035;-78
2022/07/11 03:00:12;;;;;;;19.17;8.00;;;;;;;14.16;92.69;102213.09;5072036;28;20036;-78
2022/07/11 03:02:37;;;;;;;;;;;;;;;14.26;89.89;102212.44;5071175;28;20066;-78
2022/07/11 03:05:03;;;;;;;20.17;8.20;;;;;;;14.25;92.48;102203.47;5071628;28;19920;-78
2022/07/11 03:07:29;;;;;;;20.55;8.30;;;;;;;14.27;93.08;102206.94;5071314;28;20469;-78
2022/07/11 03:09:55;;;;;;;23.95;9.05;;;;;;;14.29;92.71;102204.13;5070296;28;20508;-78
2022/07/11 03:12:21;;;;;;;21.05;8.55;;;;;;;14.30;92.89;102204.03;5071918;28;20071;-78
2022/07/11 03:14:46;;;;;;;21.23;9.55;;;;;;;14.32;93.27;102212.06;5070479;28;20063;-78
2022/07/11 03:17:12;;;;;;;21.60;9.23;;;;;;;14.37;93.21;102209.03;5071036;28;20456;-78
2022/07/11 03:19:37;;;;;;;23.70;9.88;;;;;;;14.40;93.45;102211.53;5069954;28;20028;-78
2022/07/11 03:22:04;;;;;;;21.60;10.02;;;;;;;14.41;93.21;102216.00;5087517;28;20044;-78
2022/07/11 03:24:29;;;;;;;22.50;8.68;;;;;;;14.43;93.28;102219.44;5079502;28;20038;-78
2022/07/11 03:26:54;;;;;;;21.30;8.77;;;;;;;14.48;93.76;102219.97;5070769;28;20028;-78
2022/07/11 03:29:20;;;;;;;21.73;8.30;;;;;;;14.46;93.98;102217.38;5068155;28;20032;-78
2022/07/11 03:31:45;;;;;;;22.00;9.88;;;;;;;14.49;93.92;102222.63;5070390;28;20543;-78
2022/07/11 03:34:10;;;;;;;23.92;10.02;;;;;;;14.51;93.73;102219.78;5071618;28;20029;-78
2022/07/11 03:36:35;;;;;;;23.40;9.35;;;;;;;14.53;94.15;102231.38;5065831;28;20028;-78
2022/07/11 03:39:01;;;;;;;20.45;8.93;;;;;;;14.56;93.89;102223.03;5063866;28;20037;-78
2022/07/11 03:41:26;;;;;;;21.75;9.15;;;;;;;14.57;93.88;102222.06;5067213;28;20127;-78
2022/07/11 03:43:51;;;;;;;22.92;9.57;;;;;;;14.61;93.73;102225.44;5070099;28;20036;-78
2022/07/11 03:46:16;;;;;;;22.20;10.10;;;;;;;14.61;93.97;102215.53;5068698;28;20357;-78
2022/07/11 03:48:42;;;;;;;22.95;9.73;;;;;;;14.62;93.81;102221.78;5067701;28;20085;-78
2022/07/11 03:51:07;;;;;;;21.77;9.45;;;;;;;14.65;94.30;102224.28;5075655;28;20425;-78
2022/07/11 03:53:33;;;;;;;23.63;10.23;;;;;;;14.67;94.05;102225.91;5075379;28;20035;-78
2022/07/11 03:55:59;;;;;;;21.33;9.93;;;;;;;14.69;94.40;102223.09;5069284;28;20222;-78
2022/07/11 03:58:24;;;;;;;21.23;10.43;;;;;;;14.71;94.03;102213.03;5066826;28;20032;-78
2022/07/11 04:00:49;;;;;;;21.90;10.18;;;;;;;14.76;94.55;102215.41;5070011;28;20468;-77
2022/07/11 04:03:15;;;;;;;20.88;9.65;;;;;;;14.77;94.52;102211.75;5070214;28;20028;-77
2022/07/11 04:05:40;;;;;;;23.85;10.02;;;;;;;14.80;94.27;102211.53;5068359;28;20024;-77
2022/07/11 04:08:05;;;;;;;22.23;9.88;;;;;;;14.77;94.20;102215.31;5058915;28;20064;-78
2022/07/11 04:10:31;;;;;;;23.45;9.70;;;;;;;14.81;94.22;102215.97;5067932;28;20143;-78
2022/07/11 04:12:56;;;;;;;24.77;9.02;;;;;;;14.84;94.38;102221.16;5070877;28;20476;-78
2022/07/11 04:15:22;;;;;;;21.75;9.98;;;;;;;14.85;94.42;102215.66;5068914;28;20021;-78
2022/07/11 04:17:47;;;;;;;21.85;9.88;;;;;;;14.85;94.57;102209.38;5059366;28;20501;-78
2022/07/11 04:20:13;;;;;;;22.88;9.93;;;;;;;14.88;94.93;102211.88;5051479;28;20035;-78
2022/07/11 04:22:38;;;;;;;21.80;9.77;;;;;;;14.92;94.79;102207.97;5069758;28;20032;-78
2022/07/11 04:25:04;;;;;;;22.98;9.65;;;;;;;14.95;95.23;102209.56;5068601;28;20096;-78
2022/07/11 04:27:29;;;;;;;25.88;9.57;;;;;;;14.99;94.96;102216.50;5068665;28;20154;-78
2022/07/11 04:29:54;;;;;;;25.20;9.15;;;;;;;15.02;94.73;102214.47;5068840;28;20043;-78
2022/07/11 04:32:20;;;;;;;21.08;9.45;;;;;;;15.03;95.02;102213.47;5067391;28;20029;-78
2022/07/11 04:34:46;;;;;;;22.55;8.88;;;;;;;15.06;94.43;102219.66;5068487;28;20332;-78
2022/07/11 04:37:11;;;;;;;25.77;9.18;;;;;;;15.08;94.46;102217.72;5083344;28;20020;-78
2022/07/11 04:39:36;;;;;;;22.38;8.50;;;;;;;15.11;94.23;102228.31;5069701;28;20107;-78
2022/07/11 04:42:02;;;;;;;21.45;8.65;;;;;;;15.14;94.47;102222.69;5067215;28;20020;-78
2022/07/11 04:44:28;;;;;;;20.63;9.20;;;;;;;15.16;94.58;102224.31;5067172;28;20033;-78
2022/07/11 04:46:53;;;;;;;22.75;9.43;;;;;;;15.17;93.76;102225.19;5067734;28;20021;-78
2022/07/11 04:49:19;;;;;;;22.40;9.40;;;;;;;15.18;94.07;102218.78;5068295;28;20027;-78
2022/07/11 04:51:44;;;;;;;20.50;8.23;;;;;;;15.19;94.09;102231.38;5067215;28;20026;-78
2022/07/11 04:54:10;;;;;;;20.65;8.27;;;;;;;15.20;94.13;102244.78;5068797;28;20439;-78
2022/07/11 04:56:35;;;;;;;23.17;8.77;;;;;;;15.24;94.76;102229.19;5067470;28;20025;-77
2022/07/11 04:59:01;;;;;;;23.27;9.70;;;;;;;15.27;94.57;102238.94;5069291;28;20090;-77
2022/07/11 05:01:28;;;;;;;24.63;8.93;;;;;;;15.30;93.94;102242.31;5067947;28;20029;-77
2022/07/11 05:03:54;;;;;;;21.77;8.95;;;;;;;15.32;94.17;102237.63;5068764;28;20020;-77
2022/07/11 05:06:19;;;;;;;24.88;9.93;;;;;;;15.33;94.07;102239.38;5054681;28;20052;-78
2022/07/11 05:08:45;;;;;;;19.58;8.48;;;;;;;15.35;94.32;102247.41;5066032;28;20425;-77
2022/07/11 05:11:11;;;;;;;20.98;8.63;;;;;;;15.35;94.19;102245.53;5066347;28;20485;-78
2022/07/11 05:13:37;;;;;;;23.33;9.15;;;;;;;15.36;94.74;102247.28;5067135;28;20072;-78
2022/07/11 05:16:03;;;;;;;20.55;9.02;;;;;;;15.37;94.75;102248.13;5067695;28;20028;-78
2022/07/11 05:18:28;;;;;;;21.63;8.43;;;;;;;15.40;94.80;102239.78;5068405;28;20029;-78
2022/07/11 05:20:53;;;;;;;18.52;7.95;;;;;;;15.41;94.75;102244.25;5068985;28;20054;-78
2022/07/11 05:23:19;;;;;;;20.70;8.23;;;;;;;15.43;94.15;102249.53;5069426;28;20494;-78
2022/07/11 05:25:44;;;;;;;19.92;8.02;;;;;;;15.46;94.38;102254.75;5065925;28;20032;-78
2022/07/11 05:28:09;;;;;;;20.83;8.20;;;;;;;15.50;94.48;102250.84;5070901;28;20444;-78
2022/07/11 05:30:34;;;;;;;21.92;8.80;;;;;;;15.52;94.42;102248.88;5055370;28;20040;-78
2022/07/11 05:33:00;;;;;;;21.10;8.32;;;;;;;15.56;94.43;102261.22;5072096;28;20024;-78
2022/07/11 05:35:25;;;;;;;25.13;8.50;;;;;;;15.57;94.73;102254.00;5069485;28;20409;-78
2022/07/11 05:37:51;;;;;;;22.42;8.85;;;;;;;15.59;94.58;102252.88;5071870;28;20119;-78
2022/07/11 05:40:16;;;;;;;21.90;8.13;;;;;;;15.63;94.93;102254.41;5069097;28;20425;-78
2022/07/11 05:42:42;;;;;;;19.77;8.85;;;;;;;15.66;95.18;102251.47;5069422;28;20025;-78
2022/07/11 05:45:08;;;;;;;20.10;9.05;;;;;;;15.71;94.96;102254.72;5071168;28;20075;-78
2022/07/11 05:47:33;;;;;;;21.67;8.93;;;;;;;15.73;95.52;102255.47;5071324;28;20033;-78
2022/07/11 05:49:59;;;;;;;21.20;7.97;;;;;;;15.80;95.42;102257.75;5073572;28;20036;-78
2022/07/11 05:52:24;;;;;;;21.27;8.15;;;;;;;15.83;94.96;102258.41;5073021;28;20034;-78
2022/07/11 05:54:49;;;;;;;21.30;8.13;;;;;;;15.84;94.87;102264.69;5065830;28;20025;-78
2022/07/11 05:57:14;;;;;;;20.38;8.35;;;;;;;15.86;95.35;102262.75;5071271;28;20056;-79
2022/07/11 05:59:40;;;;;;;19.10;7.60;;;;;;;15.90;95.42;102266.94;5070941;28;20530;-79
2022/07/11 06:02:07;;;;;;;21.60;8.68;;;;;;;15.93;95.71;102266.75;5070646;28;20024;-79
2022/07/11 06:04:33;;;;;;;21.50;8.43;;;;;;;15.94;95.42;102262.16;5067061;28;20086;-78
2022/07/11 06:06:59;;;;;;;19.25;7.40;;;;;;;15.98;95.58;102263.69;5071273;28;20024;-78
2022/07/11 06:09:24;;;;;;;18.77;6.90;;;;;;;16.00;95.13;102261.72;5071563;28;20062;-78
2022/07/11 06:11:49;;;;;;;21.38;7.40;;;;;;;16.00;94.64;102272.56;5070338;28;20096;-79
2022/07/11 06:14:15;;;;;;;19.15;7.70;;;;;;;16.01;94.52;102268.88;5066255;28;20353;-79
2022/07/11 06:16:40;;;;;;;17.90;6.82;;;;;;;16.02;94.98;102278.75;5073290;28;20062;-79
2022/07/11 06:19:06;;;;;;;21.98;8.63;;;;;;;16.02;94.89;102271.47;5086636;28;20075;-79
2022/07/11 06:21:31;;;;;;;21.20;8.00;;;;;;;16.03;94.99;102281.34;5064470;28;20110;-79
2022/07/11 06:23:56;;;;;;;18.88;7.50;;;;;;;16.04;95.04;102280.34;5065123;28;20033;-79
2022/07/11 06:26:22;;;;;;;19.30;7.97;;;;;;;16.06;94.70;102281.13;5069173;28;20086;-79
2022/07/11 06:28:47;;;;;;;20.55;8.45;;;;;;;16.07;94.82;102280.13;5070785;28;20231;-79
2022/07/11 06:31:13;;;;;;;24.30;8.23;;;;;;;16.10;94.73;102280.88;5069914;28;20047;-79
2022/07/11 06:33:38;;;;;;;20.75;8.77;;;;;;;16.12;94.82;102284.34;5070901;28;20028;-79
2022/07/11 06:36:05;;;;;;;21.05;8.38;;;;;;;16.13;93.85;102286.09;5072529;28;20036;-79
2022/07/11 06:38:31;;;;;;;21.40;7.78;;;;;;;16.16;94.37;102286.72;5071138;28;20016;-78
2022/07/11 06:40:56;;;;;;;19.65;9.32;;;;;;;16.17;94.27;102283.03;5070139;28;20055;-78
2022/07/11 06:43:22;;;;;;;21.70;8.70;;;;;;;16.17;93.62;102276.75;5070310;28;20020;-78
2022/07/11 06:45:48;;;;;;;22.23;8.48;;;;;;;16.18;94.88;102273.91;5071442;28;20377;-78
2022/07/11 06:48:13;;;;;;;20.88;9.18;;;;;;;16.21;94.87;102278.25;5057293;28;20052;-78
2022/07/11 06:50:38;;;;;;;21.23;8.77;;;;;;;16.22;94.54;102282.69;5057794;28;20103;-79
2022/07/11 06:53:04;;;;;;;19.80;8.02;;;;;;;16.24;94.70;102284.31;5072991;28;20021;-79
2022/07/11 06:55:31;;;;;;;20.50;8.82;;;;;;;16.26;94.40;102278.75;5072858;28;20020;-79
2022/07/11 06:57:56;;;;;;;22.15;8.85;;;;;;;16.27;93.92;102279.63;5072850;28;20036;-79
2022/07/11 07:00:21;;;;;;;20.52;9.20;;;;;;;16.29;93.75;102278.53;5072765;28;20024;-79
2022/07/11 07:02:47;;;;;;;20.25;8.68;;;;;;;16.31;92.93;102276.59;5072825;28;20021;-79
2022/07/11 07:05:12;;;;;;;20.65;8.30;;;;;;;16.31;91.87;102279.28;5072798;28;20024;-79
2022/07/11 07:07:37;;;;;;;20.90;8.77;;;;;;;16.33;92.80;102265.63;5071337;28;20028;-79
2022/07/11 07:10:04;;;;;;;19.05;8.27;;;;;;;16.36;93.21;102273.53;5071186;28;20092;-79
2022/07/11 07:12:29;;;;;;;19.73;8.55;;;;;;;16.38;93.29;102275.16;5072086;28;20414;-79
2022/07/11 07:14:55;;;;;;;22.73;8.73;;;;;;;16.37;92.02;102270.69;5070922;28;20106;-79
2022/07/11 07:17:20;;;;;;;20.38;9.07;;;;;;;16.40;92.49;102273.16;5072125;28;20028;-79
2022/07/11 07:19:45;;;;;;;21.90;8.75;;;;;;;16.46;92.38;102279.09;5071026;28;20397;-79
2022/07/11 07:22:15;;;;;;;21.60;8.52;;;;;;;16.46;91.81;102274.56;5087854;28;20024;-79
2022/07/11 07:24:41;;;;;;;21.65;8.48;;;;;;;16.53;92.59;102277.66;5090918;28;20467;-79
2022/07/11 07:27:06;;;;;;;21.27;8.82;;;;;;;16.55;91.20;102264.84;5069143;28;20093;-79
2022/07/11 07:29:32;;;;;;;21.65;8.88;;;;;;;16.59;90.84;102263.63;5070941;28;20036;-79
2022/07/11 07:31:58;;;;;;;20.45;8.10;;;;;;;16.65;91.05;102259.56;5070502;28;20455;-79
2022/07/11 07:34:23;;;;;;;21.38;8.45;;;;;;;16.70;91.22;102268.22;5069410;28;20052;-76
2022/07/11 07:36:48;;;;;;;19.73;8.18;;;;;;;16.73;90.79;102263.41;5070168;28;20107;-76
2022/07/11 07:39:14;;;;;;;19.98;8.23;;;;;;;16.75;89.81;102256.03;5070091;28;20059;-76
2022/07/11 07:41:39;;;;;;;22.67;8.45;;;;;;;16.80;89.84;102261.09;5068938;28;20567;-76
2022/07/11 07:44:05;;;;;;;19.23;7.35;;;;;;;16.84;89.15;102261.72;5069728;28;20024;-76
2022/07/11 07:46:30;;;;;;;19.67;8.00;;;;;;;16.89;89.64;102265.00;5070901;28;20476;-76
2022/07/11 07:48:55;;;;;;;18.58;7.25;;;;;;;16.93;88.83;102274.63;5070069;28;20075;-76
2022/07/11 07:51:21;;;;;;;19.70;7.13;;;;;;;16.96;88.81;102274.41;5077449;28;20081;-76
2022/07/11 07:53:47;;;;;;;19.30;7.70;;;;;;;16.97;88.25;102276.13;5071683;28;20028;-76
2022/07/11 07:56:12;;;;;;;17.40;6.55;;;;;;;17.02;89.03;102279.34;5069261;28;20380;-76
2022/07/11 07:58:38;;;;;;;20.10;7.13;;;;;;;17.09;89.15;102277.88;5069674;28;20082;-76
2022/07/11 08:03:47;;;;;;;19.60;8.20;;;;;;;17.19;87.67;102283.47;5071327;28;20082;-76
2022/07/11 08:06:13;;;;;;;19.27;7.50;;;;;;;17.21;86.51;102281.47;5070695;28;20115;-76
2022/07/11 08:08:38;;;;;;;20.45;7.55;;;;;;;17.25;86.97;102279.41;5064498;28;20049;-75
2022/07/11 08:11:03;;;;;;;19.92;7.60;;;;;;;17.28;86.51;102287.31;5067990;28;20471;-75
2022/07/11 08:13:29;;;;;;;21.35;8.30;;;;;;;17.30;87.56;102285.31;5068864;28;20210;-75
2022/07/11 08:15:55;;;;;;;19.00;7.78;;;;;;;17.33;87.46;102286.94;5070037;28;20104;-75
2022/07/11 08:18:20;;;;;;;19.80;7.32;;;;;;;17.35;87.00;102283.13;5056914;28;20017;-75
2022/07/11 08:20:45;;;;;;;20.85;8.00;;;;;;;17.34;85.87;102284.09;5065121;28;20106;-76
2022/07/11 08:23:12;;;;;;;20.00;7.68;;;;;;;17.35;86.72;102291.28;5069607;28;20396;-76
2022/07/11 08:25:38;;;;;;;20.67;7.68;;;;;;;17.33;85.48;102287.78;5070214;28;20021;-76
2022/07/11 08:28:03;;;;;;;18.98;7.80;;;;;;;17.36;85.31;102282.13;5052161;28;20109;-76
2022/07/11 08:30:29;;;;;;;22.50;8.70;;;;;;;17.39;86.16;102281.00;5069345;28;20024;-76
2022/07/11 08:32:54;;;;;;;20.30;7.05;;;;;;;17.43;86.22;102286.06;5069486;28;20040;-76
2022/07/11 08:35:19;;;;;;;21.48;7.43;;;;;;;17.44;85.39;102293.25;5068359;28;20032;-76
2022/07/11 08:37:44;;;;;;;21.15;8.27;;;;;;;17.47;85.43;102293.00;5053127;28;20033;-76
2022/07/11 08:40:11;;;;;;;21.40;9.20;;;;;;;17.50;86.72;102291.91;5054652;28;20043;-75
2022/07/11 08:42:41;;;;;;;19.30;7.15;;;;;;;17.53;85.65;102288.06;5070375;28;20036;-76
2022/07/11 08:45:07;;;;;;;21.65;8.68;;;;;;;17.56;85.50;102287.81;5068806;28;20093;-77
2022/07/11 08:47:33;;;;;;;20.67;8.77;;;;;;;17.59;85.87;102290.31;5067205;28;20040;-76
2022/07/11 08:49:59;;;;;;;20.33;8.60;;;;;;;17.56;84.27;102285.13;5075714;28;20034;-76
2022/07/11 08:52:25;;;;;;;21.42;8.85;;;;;;;17.57;86.35;102284.09;5087257;28;20095;-76
2022/07/11 08:54:51;;;;;;;21.77;8.85;;;;;;;17.57;85.71;102285.00;5075462;28;20079;-76
2022/07/11 08:57:17;;;;;;;24.17;9.38;;;;;;;17.61;86.30;102289.19;5066693;28;20032;-76
2022/07/11 08:59:43;;;;;;;20.80;8.10;;;;;;;17.64;85.69;102296.22;5083154;28;20100;-76
2022/07/11 09:02:10;;;;;;;19.75;8.30;;;;;;;17.65;85.89;102289.78;5065818;28;20107;-76
2022/07/11 09:04:35;;;;;;;21.05;8.63;;;;;;;17.69;86.06;102287.69;5080549;28;20020;-76
2022/07/11 09:07:01;;;;;;;21.88;9.65;;;;;;;17.72;85.13;102285.59;5084724;28;20033;-78
2022/07/11 09:09:28;;;;;;;21.67;9.35;;;;;;;17.76;85.61;102278.94;5065002;28;20495;-78
2022/07/11 09:11:55;;;;;;;23.38;9.52;;;;;;;17.85;85.31;102285.47;5068622;28;20039;-78
2022/07/11 09:14:25;;;;;;;21.13;8.95;;;;;;;17.94;84.67;102286.59;5071372;28;20500;-78
2022/07/11 09:16:58;;;;;;;21.27;8.65;;;;;;;18.03;84.94;102285.00;5073873;28;20108;-78
2022/07/11 09:19:26;;;;;;;23.73;10.07;;;;;;;18.15;85.17;102283.97;5065757;28;20044;-78
2022/07/11 09:27:52;;;;;;;22.75;9.90;;;;;;;18.24;83.13;102282.31;5066226;28;20119;-78
2022/07/11 09:30:29;;;;;;;20.77;9.45;;;;;;;18.29;83.40;102269.22;5069240;28;20025;-78
2022/07/11 09:32:56;;;;;;;23.15;10.00;;;;;;;18.37;83.17;102271.28;5081779;28;20035;-78
2022/07/11 09:35:31;;;;;;;23.13;9.18;;;;;;;18.45;82.42;102272.38;5072770;28;20071;-78
2022/07/11 09:37:57;;;;;;;21.80;9.40;;;;;;;18.51;81.46;102260.94;5073061;28;20036;-78
2022/07/11 09:40:23;;;;;;;23.85;9.75;;;;;;;18.54;80.44;102268.00;5065720;28;20521;-78
2022/07/11 09:42:54;;;;;;;20.50;8.98;;;;;;;18.56;80.85;102270.59;5074382;28;20768;-78
2022/07/11 09:45:21;;;;;;;22.48;9.55;;;;;;;18.61;81.96;102276.50;5075368;28;20371;-78
2022/07/11 09:47:48;;;;;;;22.25;8.95;;;;;;;18.61;80.92;102273.78;5075830;28;20032;-78
2022/07/11 09:50:18;;;;;;;22.02;9.00;;;;;;;18.60;81.60;102261.19;5079801;28;20028;-72
2022/07/11 09:52:58;;;;;;;21.35;9.13;;;;;;;18.65;82.50;102269.81;5092450;28;20524;-71
2022/07/11 09:55:25;;;;;;;21.02;8.00;;;;;;;18.65;81.50;102270.69;5071493;28;20020;-71
2022/07/11 09:57:50;;;;;;;21.50;8.85;;;;;;;18.66;81.09;102266.09;5066785;28;20658;-72
2022/07/11 10:00:16;;;;;;;24.27;9.43;;;;;;;18.68;81.70;102266.81;5071269;28;20084;-72
2022/07/11 10:02:41;;;;;;;21.83;8.77;;;;;;;18.71;81.62;102263.81;5075912;28;20032;-72
2022/07/11 10:05:08;;;;;;;20.10;7.82;;;;;;;18.74;83.03;102270.88;5070816;28;20033;-71
2022/07/11 10:07:33;;;;;;;21.05;8.25;;;;;;;18.75;80.95;102270.75;5069289;28;20037;-71
2022/07/11 10:10:00;;;;;;;19.70;8.20;;;;;;;18.75;81.90;102275.34;5068739;28;20361;-71
2022/07/11 10:12:27;;;;;;;20.25;8.93;;;;;;;18.80;82.79;102273.94;5068685;28;20063;-71
2022/07/11 10:14:54;;;;;;;24.30;9.18;;;;;;;18.81;82.26;102275.66;5069015;28;20449;-72
2022/07/11 10:17:25;;;;;;;21.27;9.60;;;;;;;18.87;83.67;102277.03;5064578;28;20021;-73
2022/07/11 10:20:04;;;;;;;19.65;8.40;;;;;;;18.92;82.21;102273.91;5070416;28;20044;-73
2022/07/11 10:22:33;;;;;;;22.85;9.35;;;;;;;18.94;80.12;102269.19;5077813;28;20472;-73
2022/07/11 10:25:06;;;;;;;24.27;10.45;;;;;;;18.97;81.48;102274.38;5066294;28;20055;-73
2022/07/11 10:27:56;;;;;;;21.63;9.50;;;;;;;19.00;82.20;102274.13;5072042;28;20147;-73
2022/07/11 10:30:43;;;;;;;24.48;9.63;;;;;;;19.03;81.36;102276.56;5070525;28;20032;-73
2022/07/11 10:33:09;;;;;;;22.65;10.32;;;;;;;19.05;79.34;102271.88;5067873;28;20722;-73
2022/07/11 10:35:34;;;;;;;27.52;9.55;;;;;;;19.08;78.94;102276.16;5065816;28;20020;-73
2022/07/11 10:38:04;;;;;;;21.60;8.57;;;;;;;19.15;80.91;102280.97;5067443;28;20024;-73
2022/07/11 10:40:51;;;;;;;20.95;9.40;;;;;;;19.23;81.01;102290.34;5068621;28;20118;-73
2022/07/11 10:43:22;;;;;;;23.42;9.93;;;;;;;19.28;81.14;102271.69;5078403;28;20020;-73
2022/07/11 10:45:55;;;;;;;21.45;8.98;;;;;;;19.35;81.81;102290.09;5068624;28;20117;-72
2022/07/11 10:48:21;;;;;;;21.90;9.30;;;;;;;19.36;80.94;102282.81;5067273;28;20028;-72
2022/07/11 10:50:53;;;;;;;22.88;10.77;;;;;;;19.40;79.59;102287.00;5066037;28;20059;-73
2022/07/11 10:53:23;;;;;;;23.15;8.85;;;;;;;19.37;79.48;102281.78;5071012;28;20035;-73
2022/07/11 10:56:13;;;;;;;21.58;9.48;;;;;;;19.35;80.33;102284.66;5055407;28;20434;-73
2022/07/11 10:58:42;;;;;;;21.95;9.45;;;;;;;19.31;80.22;102285.94;5061501;28;20036;-73
2022/07/11 11:01:11;;;;;;;;;;;;;;;19.35;80.62;102290.09;5065713;28;20516;-73
2022/07/11 11:03:37;;;;;;;20.73;9.13;;;;;;;19.30;81.01;102281.47;5070415;28;19916;-72
2022/07/11 11:06:03;;;;;;;20.75;8.90;;;;;;;19.28;80.50;102282.59;5070625;28;20028;-72
2022/07/11 11:08:31;;;;;;;23.25;9.35;;;;;;;19.26;79.45;102284.63;5072050;28;20040;-72
2022/07/11 11:10:56;;;;;;;17.42;7.13;;;;;;;19.24;80.84;102282.03;5069647;28;20029;-72
2022/07/11 11:13:22;;;;;;;18.73;6.95;;;;;;;19.23;82.05;102291.19;5071575;28;20521;-73
2022/07/11 11:15:54;;;;;;;18.17;7.07;;;;;;;19.21;81.08;102288.59;5070778;28;20035;-73
2022/07/11 11:18:25;;;;;;;20.65;6.85;;;;;;;19.21;82.30;102294.06;5070899;28;20059;-73
2022/07/11 11:21:00;;;;;;;18.60;6.20;;;;;;;19.22;80.91;102294.91;5074916;28;20032;-73
2022/07/11 11:23:27;;;;;;;19.88;5.97;;;;;;;19.24;79.02;102300.22;5069972;28;20537;-73